Zion Natl Park, Utah
Current Conditions -  °F | °C
As of 7:35 AM on Thursday 23 Oct 2014 (Local Time) from KAZC Reporting Station
Clear Clear  
Wind Chill: 33°   Ceiling: Unl
Heat Index: 37°   Visibility: 10mi
Dew Point: 31°   Wind: 5mph
Humidity: 80%   Direction: 160°SSE
Pressure: 30.24"   Gusts: NA
Location:  37.17°N, 113°W
Report Text: KAZC 231335Z AUTO 16004KT 10SM CLR 03/00 A3024 RMK AO2 T00271005
Loading
Personal Weather Stations






























Interactive Weather Map
Tropical Storm Tracking
New forecast layout! Learn more

10-Day Weather Forecast

Advertisements
Track Severe Weather on mobile